createdAt,value
2022-11-24T00:01:35.997Z,25.45
2022-11-24T00:06:38.002Z,25.50
2022-11-24T00:11:40.532Z,26.85
2022-11-24T00:16:42.676Z,26.90
2022-11-24T00:21:44.868Z,26.35
2022-11-24T00:26:46.972Z,30.60
2022-11-24T00:31:49.055Z,30.00
2022-11-24T00:36:51.052Z,30.30
2022-11-24T00:41:53.072Z,33.67
2022-11-24T00:46:55.230Z,31.02
2022-11-24T00:51:57.412Z,32.33
2022-11-24T00:56:59.954Z,37.00
2022-11-24T01:02:02.064Z,35.17
2022-11-24T01:07:04.151Z,31.87
2022-11-24T01:12:06.341Z,33.25
2022-11-24T01:17:08.420Z,35.47
2022-11-24T01:22:10.474Z,33.93
2022-11-24T01:27:12.547Z,33.75
2022-11-24T01:32:14.642Z,36.05
2022-11-24T01:37:16.787Z,43.47
2022-11-24T01:42:18.853Z,38.20
2022-11-24T01:47:35.870Z,38.73
2022-11-24T01:52:42.639Z,41.55
2022-11-24T01:57:51.766Z,36.08
2022-11-24T02:02:54.138Z,45.22
2022-11-24T02:07:59.910Z,37.03
2022-11-24T02:13:02.308Z,44.07
2022-11-24T02:18:04.458Z,44.75
2022-11-24T02:23:23.132Z,45.63
2022-11-24T02:28:30.153Z,50.70
2022-11-24T02:33:33.658Z,47.33
2022-11-24T02:38:36.336Z,52.20
2022-11-24T02:43:47.074Z,37.92
2022-11-24T02:48:49.155Z,51.72
2022-11-24T02:53:51.223Z,49.80
2022-11-24T02:58:53.259Z,59.22
2022-11-24T03:03:55.281Z,57.07
2022-11-24T03:08:57.380Z,55.72
2022-11-24T03:13:59.393Z,64.32
2022-11-24T03:19:02.237Z,60.85
2022-11-24T03:24:04.827Z,53.55
2022-11-24T03:29:06.870Z,56.57
2022-11-24T03:34:09.207Z,57.13
2022-11-24T03:39:11.297Z,59.22
2022-11-24T03:44:13.320Z,54.08
2022-11-24T03:49:15.343Z,54.22
2022-11-24T03:54:17.515Z,55.50
2022-11-24T03:59:19.530Z,50.42
2022-11-24T04:04:21.582Z,54.83
2022-11-24T04:09:23.694Z,52.70
2022-11-24T04:14:25.864Z,57.50
2022-11-24T04:19:27.906Z,62.53
2022-11-24T04:24:30.266Z,59.40
2022-11-24T04:29:32.320Z,58.38
2022-11-24T04:34:35.146Z,69.53
2022-11-24T04:39:37.428Z,66.35
2022-11-24T04:44:39.481Z,63.23
2022-11-24T04:49:41.748Z,74.95
2022-11-24T04:54:44.000Z,65.55
2022-11-24T04:59:46.315Z,73.03
2022-11-24T05:04:48.432Z,75.90
2022-11-24T05:10:08.790Z,73.10
2022-11-24T05:15:11.147Z,66.35
2022-11-24T05:20:13.191Z,69.82
2022-11-24T05:25:15.911Z,72.05
2022-11-24T05:30:18.059Z,74.40
2022-11-24T05:35:21.235Z,71.20
2022-11-24T05:40:23.372Z,50.55
2022-11-24T05:45:25.897Z,59.88
2022-11-24T05:50:28.034Z,65.47
2022-11-24T05:55:30.489Z,65.95
2022-11-24T06:00:33.542Z,60.00
2022-11-24T06:05:35.623Z,63.53
2022-11-24T06:10:37.728Z,42.22
2022-11-24T06:15:40.935Z,62.03
2022-11-24T06:20:53.165Z,56.08
2022-11-24T06:26:05.214Z,57.60
2022-11-24T06:31:07.311Z,53.53
2022-11-24T06:36:13.453Z,57.20
2022-11-24T06:41:16.289Z,42.80
2022-11-24T06:46:18.388Z,41.13
2022-11-24T06:51:20.527Z,49.33
2022-11-24T06:56:22.849Z,44.30
2022-11-24T07:01:27.257Z,46.33
2022-11-24T07:06:29.366Z,48.53
2022-11-24T07:11:31.457Z,46.70
2022-11-24T07:16:33.959Z,47.20
2022-11-24T07:21:36.006Z,40.00
2022-11-24T07:26:38.082Z,48.92
2022-11-24T07:31:40.245Z,48.60
2022-11-24T07:36:42.939Z,53.90
2022-11-24T07:41:45.017Z,42.63
2022-11-24T07:46:53.510Z,45.85
2022-11-24T07:51:55.530Z,45.65
2022-11-24T07:56:57.604Z,41.45
2022-11-24T08:01:59.796Z,48.13
2022-11-24T08:07:02.583Z,51.67
2022-11-24T08:12:05.305Z,43.90
2022-11-24T08:17:07.412Z,48.95
2022-11-24T08:22:09.757Z,52.67
2022-11-24T08:27:12.672Z,43.35
2022-11-24T08:32:21.758Z,51.93
2022-11-24T08:37:26.388Z,55.95
2022-11-24T08:42:28.848Z,52.95
2022-11-24T08:47:30.980Z,56.92
2022-11-24T08:52:33.157Z,50.63
2022-11-24T08:57:35.291Z,42.03
2022-11-24T09:02:37.420Z,50.20
2022-11-24T09:07:39.471Z,45.08
2022-11-24T09:12:43.612Z,54.53
2022-11-24T09:17:46.319Z,53.65
2022-11-24T09:22:48.481Z,54.50
2022-11-24T09:27:51.482Z,54.78
2022-11-24T09:32:55.880Z,48.20
2022-11-24T09:37:57.936Z,52.03
2022-11-24T09:43:17.911Z,48.47
2022-11-24T09:48:30.574Z,46.73
2022-11-24T09:54:13.482Z,48.85
2022-11-24T09:59:26.341Z,45.38
2022-11-24T10:04:34.068Z,48.20
2022-11-24T10:10:04.077Z,47.75
2022-11-24T10:15:22.568Z,39.37
2022-11-24T10:20:28.091Z,37.75
2022-11-24T10:25:36.093Z,37.45
2022-11-24T10:30:38.500Z,46.17
2022-11-24T10:35:45.977Z,44.03
2022-11-24T10:40:57.752Z,46.93
2022-11-24T10:46:15.659Z,43.92
2022-11-24T10:51:42.498Z,41.22
2022-11-24T10:56:46.184Z,28.02
2022-11-24T11:01:48.582Z,44.42
2022-11-24T11:06:50.678Z,40.60
2022-11-24T11:11:53.698Z,38.45
2022-11-24T11:16:59.902Z,36.70
2022-11-24T11:22:04.678Z,33.15
2022-11-24T11:27:26.567Z,37.95
2022-11-24T11:37:51.596Z,33.88
2022-11-24T11:43:22.583Z,34.25
2022-11-24T11:48:32.410Z,32.67
2022-11-24T11:53:45.041Z,33.78
2022-11-24T11:59:06.534Z,33.93
2022-11-24T12:04:46.185Z,33.00
2022-11-24T12:10:13.725Z,30.30
2022-11-24T12:16:07.330Z,29.50
2022-11-24T12:21:26.776Z,26.35
2022-11-24T12:26:44.109Z,28.43
2022-11-24T12:32:07.924Z,26.35
2022-11-24T12:37:22.993Z,27.83
2022-11-24T12:42:43.899Z,25.55
2022-11-24T12:48:23.778Z,27.02
2022-11-24T12:53:30.910Z,27.10
2022-11-24T12:58:58.498Z,26.52
2022-11-24T13:04:43.204Z,28.55
2022-11-24T13:10:40.109Z,26.23
2022-11-24T13:21:30.994Z,24.87
2022-11-24T13:26:42.373Z,21.40
2022-11-24T13:31:44.497Z,22.10
2022-11-24T13:36:53.874Z,23.95
2022-11-24T13:42:04.981Z,24.98
2022-11-24T13:47:28.930Z,24.90
2022-11-24T13:52:40.175Z,23.87
2022-11-24T13:57:51.699Z,25.40
2022-11-24T14:02:59.604Z,20.60
2022-11-24T14:08:02.260Z,24.10
2022-11-24T14:13:22.514Z,19.77
2022-11-24T14:18:24.581Z,24.60
2022-11-24T14:23:26.861Z,21.10
2022-11-24T14:28:29.379Z,26.12
2022-11-24T14:33:31.556Z,26.70
2022-11-24T14:38:34.182Z,28.90
2022-11-24T14:43:36.259Z,27.90
2022-11-24T14:48:49.610Z,26.85
2022-11-24T14:53:55.328Z,27.02
2022-11-24T14:58:58.838Z,30.95
2022-11-24T15:04:22.079Z,22.60
2022-11-24T15:09:43.059Z,29.35
2022-11-24T15:14:54.553Z,28.95
2022-11-24T15:20:17.619Z,28.87
2022-11-24T15:25:33.986Z,30.45
2022-11-24T15:30:37.103Z,26.83
2022-11-24T15:35:39.232Z,28.45
2022-11-24T15:40:44.607Z,34.28
2022-11-24T15:45:46.755Z,26.27
2022-11-24T15:50:49.477Z,25.75
2022-11-24T15:55:52.691Z,29.93
2022-11-24T16:00:54.956Z,28.87
2022-11-24T16:05:57.673Z,29.67
2022-11-24T16:10:59.746Z,32.17
2022-11-24T16:16:02.122Z,33.80
2022-11-24T16:21:04.239Z,33.97
2022-11-24T16:26:07.211Z,33.33
2022-11-24T16:31:09.462Z,34.75
2022-11-24T16:36:11.982Z,34.58
2022-11-24T16:41:14.419Z,33.03
2022-11-24T16:46:21.826Z,31.17
2022-11-24T16:51:24.615Z,33.40
2022-11-24T16:56:28.319Z,32.88
2022-11-24T17:01:30.748Z,33.67
2022-11-24T17:06:33.900Z,33.60
2022-11-24T17:11:35.984Z,34.97
2022-11-24T17:16:38.739Z,33.20
2022-11-24T17:21:41.019Z,27.95
2022-11-24T17:26:48.998Z,24.58
2022-11-24T17:31:51.414Z,33.00
2022-11-24T17:36:53.537Z,32.53
2022-11-24T17:41:55.604Z,33.80
2022-11-24T17:46:58.977Z,27.00
2022-11-24T17:52:01.098Z,27.58
2022-11-24T17:57:03.221Z,26.12
2022-11-24T18:02:05.308Z,28.57
2022-11-24T18:07:07.659Z,28.38
2022-11-24T18:12:09.905Z,30.83
2022-11-24T18:17:12.032Z,28.95
2022-11-24T18:22:14.129Z,31.70
2022-11-24T18:27:16.337Z,28.23
2022-11-24T18:32:18.414Z,26.62
2022-11-24T18:37:20.541Z,30.20
2022-11-24T18:42:25.597Z,29.33
2022-11-24T18:47:27.973Z,36.40
2022-11-24T18:52:30.050Z,36.40
2022-11-24T18:57:32.189Z,33.65
2022-11-24T19:02:34.712Z,41.20
2022-11-24T19:07:39.259Z,35.15
2022-11-24T19:12:41.585Z,32.33
2022-11-24T19:17:47.164Z,33.50
2022-11-24T19:22:49.502Z,34.47
2022-11-24T19:27:51.554Z,32.65
2022-11-24T19:32:53.848Z,37.75
2022-11-24T19:37:55.977Z,33.15
2022-11-24T19:42:58.406Z,32.20
2022-11-24T19:48:00.491Z,42.22
2022-11-24T19:53:02.542Z,39.00
2022-11-24T19:58:04.603Z,29.58
2022-11-24T20:03:06.650Z,39.00
2022-11-24T20:08:08.882Z,36.53
2022-11-24T20:13:10.929Z,38.05
2022-11-24T20:18:12.975Z,37.75
2022-11-24T20:23:15.177Z,44.30
2022-11-24T20:28:17.233Z,36.33
2022-11-24T20:33:19.294Z,41.00
2022-11-24T20:38:21.418Z,40.38
2022-11-24T20:43:23.602Z,39.22
2022-11-24T20:48:25.700Z,39.08
2022-11-24T20:53:27.804Z,40.60
2022-11-24T20:58:29.970Z,39.50
2022-11-24T21:03:32.559Z,41.45
2022-11-24T21:08:38.976Z,41.70
2022-11-24T21:13:43.825Z,36.15
2022-11-24T21:18:47.256Z,38.05
2022-11-24T21:23:49.713Z,37.83
2022-11-24T21:28:51.779Z,37.78
2022-11-24T21:33:54.754Z,37.55
2022-11-24T21:38:58.536Z,31.20
2022-11-24T21:44:01.374Z,35.55
2022-11-24T21:49:03.886Z,41.27
2022-11-24T21:54:06.089Z,36.83
2022-11-24T21:59:08.222Z,43.80
2022-11-24T22:04:10.350Z,41.40
2022-11-24T22:09:17.597Z,37.63
2022-11-24T22:14:20.228Z,40.67
2022-11-24T22:19:22.257Z,40.47
2022-11-24T22:24:27.340Z,39.53
2022-11-24T22:29:29.668Z,43.58
2022-11-24T22:34:31.728Z,43.80
2022-11-24T22:39:33.765Z,40.77
2022-11-24T22:44:36.066Z,44.33
2022-11-24T22:49:38.319Z,36.47
2022-11-24T22:54:40.535Z,41.83
2022-11-24T22:59:42.578Z,35.78
2022-11-24T23:04:44.630Z,40.10
2022-11-24T23:09:47.716Z,38.90
2022-11-24T23:14:49.779Z,36.60
2022-11-24T23:19:52.013Z,37.47
2022-11-24T23:24:54.085Z,40.65
2022-11-24T23:29:56.147Z,37.57
2022-11-24T23:34:58.216Z,36.00
2022-11-24T23:40:00.283Z,38.15
2022-11-24T23:45:02.482Z,34.50
2022-11-24T23:50:08.427Z,36.00
2022-11-24T23:55:10.508Z,37.60
